sensor_id;sensor_type;location;lat;lon;timestamp;pressure;altitude;pressure_sealevel;temperature;humidity
38558;BME280;24333;42.626;23.308;2023-08-21T00:00:30;69008.47;;;-148.95;47.48
38558;BME280;24333;42.626;23.308;2023-08-21T00:02:55;69010.53;;;-148.95;47.09
38558;BME280;24333;42.626;23.308;2023-08-21T00:05:20;69012.59;;;-148.95;48.02
38558;BME280;24333;42.626;23.308;2023-08-21T00:07:46;69012.59;;;-148.95;48.60
38558;BME280;24333;42.626;23.308;2023-08-21T00:10:16;69016.75;;;-148.95;48.54
38558;BME280;24333;42.626;23.308;2023-08-21T00:12:41;69025.06;;;-148.95;47.83
38558;BME280;24333;42.626;23.308;2023-08-21T00:15:07;69022.97;;;-148.95;48.26
38558;BME280;24333;42.626;23.308;2023-08-21T00:17:35;69020.91;;;-148.95;47.84
38558;BME280;24333;42.626;23.308;2023-08-21T00:20:00;69018.84;;;-148.95;47.92
38558;BME280;24333;42.626;23.308;2023-08-21T00:22:27;69025.06;;;-148.95;48.01
38558;BME280;24333;42.626;23.308;2023-08-21T00:24:52;69018.84;;;-148.95;48.10
38558;BME280;24333;42.626;23.308;2023-08-21T00:27:18;69020.91;;;-148.95;48.34
38558;BME280;24333;42.626;23.308;2023-08-21T00:29:43;69022.97;;;-148.95;47.79
38558;BME280;24333;42.626;23.308;2023-08-21T00:32:09;69018.84;;;-148.95;48.04
38558;BME280;24333;42.626;23.308;2023-08-21T00:34:34;69027.13;;;-148.95;48.02
38558;BME280;24333;42.626;23.308;2023-08-21T00:36:59;69020.91;;;-148.95;48.40
38558;BME280;24333;42.626;23.308;2023-08-21T00:39:25;69027.13;;;-148.95;48.59
38558;BME280;24333;42.626;23.308;2023-08-21T00:41:50;69039.56;;;-148.95;48.91
38558;BME280;24333;42.626;23.308;2023-08-21T00:44:15;69041.66;;;-148.95;49.62
38558;BME280;24333;42.626;23.308;2023-08-21T00:46:41;69049.94;;;-148.95;49.55
38558;BME280;24333;42.626;23.308;2023-08-21T00:49:06;69058.22;;;-148.95;50.88
38558;BME280;24333;42.626;23.308;2023-08-21T00:51:31;69064.47;;;-148.95;50.16
38558;BME280;24333;42.626;23.308;2023-08-21T00:53:57;69072.75;;;-148.95;50.54
38558;BME280;24333;42.626;23.308;2023-08-21T00:56:23;69072.75;;;-148.95;50.42
38558;BME280;24333;42.626;23.308;2023-08-21T00:58:49;69083.13;;;-148.95;50.74
38558;BME280;24333;42.626;23.308;2023-08-21T01:01:17;69081.06;;;-148.95;50.22
38558;BME280;24333;42.626;23.308;2023-08-21T01:03:43;69076.91;;;-148.95;49.24
38558;BME280;24333;42.626;23.308;2023-08-21T01:06:09;69072.75;;;-148.95;48.81
38558;BME280;24333;42.626;23.308;2023-08-21T06:12:30;68931.72;;;-148.95;53.29
38558;BME280;24333;42.626;23.308;2023-08-21T06:14:55;68933.81;;;-148.95;54.42
38558;BME280;24333;42.626;23.308;2023-08-21T06:17:21;68929.66;;;-148.95;53.77
38558;BME280;24333;42.626;23.308;2023-08-21T06:19:46;68927.56;;;-148.95;54.50
38558;BME280;24333;42.626;23.308;2023-08-21T06:22:12;68906.84;;;-148.95;54.27
38558;BME280;24333;42.626;23.308;2023-08-21T06:24:37;68896.47;;;-148.95;54.04
38558;BME280;24333;42.626;23.308;2023-08-21T06:27:03;68881.97;;;-148.95;53.00
38558;BME280;24333;42.626;23.308;2023-08-21T06:29:31;68890.25;;;-148.95;52.79
38558;BME280;24333;42.626;23.308;2023-08-21T06:31:57;68888.19;;;-148.95;54.36
38558;BME280;24333;42.626;23.308;2023-08-21T06:34:22;68879.88;;;-148.95;53.40
38558;BME280;24333;42.626;23.308;2023-08-21T06:36:48;68877.81;;;-148.95;52.58
38558;BME280;24333;42.626;23.308;2023-08-21T06:39:13;68863.28;;;-148.95;52.39
38558;BME280;24333;42.626;23.308;2023-08-21T06:41:38;68855.00;;;-148.95;52.75
38558;BME280;24333;42.626;23.308;2023-08-21T06:44:05;68846.69;;;-148.95;53.42
38558;BME280;24333;42.626;23.308;2023-08-21T06:46:31;68840.47;;;-148.95;51.42
38558;BME280;24333;42.626;23.308;2023-08-21T06:48:57;68832.19;;;-148.95;51.67
38558;BME280;24333;42.626;23.308;2023-08-21T06:51:22;68830.09;;;-148.95;50.30
38558;BME280;24333;42.626;23.308;2023-08-21T06:53:48;68834.25;;;-148.95;51.28
38558;BME280;24333;42.626;23.308;2023-08-21T06:56:15;68823.88;;;-148.95;50.88
38558;BME280;24333;42.626;23.308;2023-08-21T06:58:44;68817.66;;;-148.95;49.75
38558;BME280;24333;42.626;23.308;2023-08-21T07:01:11;68815.59;;;-148.95;47.20
38558;BME280;24333;42.626;23.308;2023-08-21T07:03:37;68811.44;;;-148.95;49.15
38558;BME280;24333;42.626;23.308;2023-08-21T07:06:02;68813.53;;;-148.95;48.01
38558;BME280;24333;42.626;23.308;2023-08-21T07:08:29;68796.94;;;-148.95;46.15
38558;BME280;24333;42.626;23.308;2023-08-21T07:10:54;68786.56;;;-148.95;45.49
38558;BME280;24333;42.626;23.308;2023-08-21T07:13:21;68786.56;;;-148.95;45.27
38558;BME280;24333;42.626;23.308;2023-08-21T07:15:47;68786.56;;;-148.95;43.83
38558;BME280;24333;42.626;23.308;2023-08-21T07:18:14;68778.25;;;-148.95;42.12
38558;BME280;24333;42.626;23.308;2023-08-21T07:20:40;68774.13;;;-148.95;43.90
38558;BME280;24333;42.626;23.308;2023-08-21T07:23:14;68772.03;;;-148.95;42.13
38558;BME280;24333;42.626;23.308;2023-08-21T07:25:41;68757.53;;;-148.95;41.91
38558;BME280;24333;42.626;23.308;2023-08-21T07:28:10;68755.44;;;-148.95;43.19
38558;BME280;24333;42.626;23.308;2023-08-21T07:30:55;68755.44;;;-148.95;43.65
38558;BME280;24333;42.626;23.308;2023-08-21T07:33:31;68753.38;;;-148.95;42.96
38558;BME280;24333;42.626;23.308;2023-08-21T07:36:06;68728.50;;;-148.95;42.76
38558;BME280;24333;42.626;23.308;2023-08-21T07:38:38;68720.19;;;-148.95;41.81
38558;BME280;24333;42.626;23.308;2023-08-21T07:41:42;68718.13;;;-148.95;42.15
38558;BME280;24333;42.626;23.308;2023-08-21T07:44:08;68716.06;;;-148.95;42.53
38558;BME280;24333;42.626;23.308;2023-08-21T07:46:38;68711.91;;;-148.95;42.57
38558;BME280;24333;42.626;23.308;2023-08-21T07:49:07;68703.59;;;-148.95;41.13
38558;BME280;24333;42.626;23.308;2023-08-21T07:51:36;68705.69;;;-148.95;41.23
38558;BME280;24333;42.626;23.308;2023-08-21T07:54:06;68699.47;;;-148.95;40.84
38558;BME280;24333;42.626;23.308;2023-08-21T10:57:32;68168.63;;;-148.95;29.63
38558;BME280;24333;42.626;23.308;2023-08-21T11:00:00;68152.03;;;-148.95;29.37
38558;BME280;24333;42.626;23.308;2023-08-21T11:02:29;68083.63;;;-148.95;29.53
38558;BME280;24333;42.626;23.308;2023-08-21T11:04:55;68035.94;;;-148.95;28.53
38558;BME280;24333;42.626;23.308;2023-08-21T11:07:20;67977.88;;;-148.95;28.26
38558;BME280;24333;42.626;23.308;2023-08-21T11:09:47;67967.50;;;-148.95;28.99
38558;BME280;24333;42.626;23.308;2023-08-21T11:12:15;67911.53;;;-148.95;28.32
38558;BME280;24333;42.626;23.308;2023-08-21T11:14:42;67832.75;;;-148.95;28.75
38558;BME280;24333;42.626;23.308;2023-08-21T11:17:08;67903.25;;;-148.95;28.62
38558;BME280;24333;42.626;23.308;2023-08-21T11:19:35;67897.03;;;-148.95;29.86
38558;BME280;24333;42.626;23.308;2023-08-21T11:22:01;67884.59;;;-148.95;30.29
38558;BME280;24333;42.626;23.308;2023-08-21T11:24:50;67907.38;;;-148.95;28.98
38558;BME280;24333;42.626;23.308;2023-08-21T11:27:17;67965.44;;;-148.95;28.38
38558;BME280;24333;42.626;23.308;2023-08-21T11:29:48;68015.19;;;-148.95;28.68
38558;BME280;24333;42.626;23.308;2023-08-21T11:32:15;68038.00;;;-148.95;28.74
38558;BME280;24333;42.626;23.308;2023-08-21T11:34:48;68077.41;;;-148.95;29.58
38558;BME280;24333;42.626;23.308;2023-08-21T11:37:16;68102.28;;;-148.95;30.14
38558;BME280;24333;42.626;23.308;2023-08-21T11:39:48;68106.44;;;-148.95;30.27
38558;BME280;24333;42.626;23.308;2023-08-21T11:42:14;68064.97;;;-148.95;30.90
38558;BME280;24333;42.626;23.308;2023-08-21T11:44:47;68064.97;;;-148.95;29.58
38558;BME280;24333;42.626;23.308;2023-08-21T11:47:13;68052.53;;;-148.95;30.19
38558;BME280;24333;42.626;23.308;2023-08-21T11:49:40;68096.06;;;-148.95;30.32
38558;BME280;24333;42.626;23.308;2023-08-21T11:52:10;68143.75;;;-148.95;30.25
38558;BME280;24333;42.626;23.308;2023-08-21T11:54:38;68170.69;;;-148.95;30.45
38558;BME280;24333;42.626;23.308;2023-08-21T11:57:08;68174.84;;;-148.95;30.54
38558;BME280;24333;42.626;23.308;2023-08-21T11:59:33;68152.03;;;-148.95;29.94
38558;BME280;24333;42.626;23.308;2023-08-21T12:01:59;68185.22;;;-148.95;29.91
38558;BME280;24333;42.626;23.308;2023-08-21T12:04:45;68187.28;;;-148.95;29.84
38558;BME280;24333;42.626;23.308;2023-08-21T12:07:10;68179.00;;;-148.95;29.97
38558;BME280;24333;42.626;23.308;2023-08-21T12:09:37;68158.25;;;-148.95;32.14
38558;BME280;24333;42.626;23.308;2023-08-21T12:12:03;68147.91;;;-148.95;29.41
38558;BME280;24333;42.626;23.308;2023-08-21T12:14:28;68158.25;;;-148.95;29.71
38558;BME280;24333;42.626;23.308;2023-08-21T12:16:55;68156.19;;;-148.95;29.48
38558;BME280;24333;42.626;23.308;2023-08-21T12:19:22;68141.66;;;-148.95;28.76
38558;BME280;24333;42.626;23.308;2023-08-21T12:21:48;68152.03;;;-148.95;29.40
38558;BME280;24333;42.626;23.308;2023-08-21T12:24:13;68125.09;;;-148.95;30.21
38558;BME280;24333;42.626;23.308;2023-08-21T12:26:39;68131.31;;;-148.95;28.75
38558;BME280;24333;42.626;23.308;2023-08-21T12:29:04;68110.56;;;-148.95;30.56
38558;BME280;24333;42.626;23.308;2023-08-21T12:31:30;68143.75;;;-148.95;29.12
38558;BME280;24333;42.626;23.308;2023-08-21T12:33:56;68127.16;;;-148.95;28.12
38558;BME280;24333;42.626;23.308;2023-08-21T12:36:21;68116.78;;;-148.95;28.37
38558;BME280;24333;42.626;23.308;2023-08-21T12:38:47;68127.16;;;-148.95;28.63
38558;BME280;24333;42.626;23.308;2023-08-21T12:41:13;68127.16;;;-148.95;28.28
38558;BME280;24333;42.626;23.308;2023-08-21T12:43:39;68135.47;;;-148.95;28.51
38558;BME280;24333;42.626;23.308;2023-08-21T12:46:05;68114.72;;;-148.95;29.56
38558;BME280;24333;42.626;23.308;2023-08-21T12:48:30;68131.31;;;-148.95;28.48
38558;BME280;24333;42.626;23.308;2023-08-21T12:50:55;68104.34;;;-148.95;31.28
38558;BME280;24333;42.626;23.308;2023-08-21T12:53:21;68112.66;;;-148.95;27.96
38558;BME280;24333;42.626;23.308;2023-08-21T12:55:46;68096.06;;;-148.95;28.85
38558;BME280;24333;42.626;23.308;2023-08-21T12:58:12;68110.56;;;-148.95;27.90
38558;BME280;24333;42.626;23.308;2023-08-21T13:00:39;68120.94;;;-148.95;28.16
38558;BME280;24333;42.626;23.308;2023-08-21T13:03:04;68094.00;;;-148.95;28.77
38558;BME280;24333;42.626;23.308;2023-08-21T13:05:30;68102.28;;;-148.95;27.96
38558;BME280;24333;42.626;23.308;2023-08-21T13:07:55;68108.50;;;-148.95;28.34
38558;BME280;24333;42.626;23.308;2023-08-21T13:10:21;68106.44;;;-148.95;28.51
38558;BME280;24333;42.626;23.308;2023-08-21T13:12:46;68079.47;;;-148.95;29.84
38558;BME280;24333;42.626;23.308;2023-08-21T13:15:11;68056.66;;;-148.95;29.27
38558;BME280;24333;42.626;23.308;2023-08-21T13:17:37;68044.22;;;-148.95;28.85
38558;BME280;24333;42.626;23.308;2023-08-21T13:20:03;68040.06;;;-148.95;29.06
38558;BME280;24333;42.626;23.308;2023-08-21T13:22:50;68056.66;;;-148.95;29.60
38558;BME280;24333;42.626;23.308;2023-08-21T13:25:21;68042.16;;;-148.95;29.79
38558;BME280;24333;42.626;23.308;2023-08-21T13:27:48;68038.00;;;-148.95;28.92
38558;BME280;24333;42.626;23.308;2023-08-21T13:30:14;68033.84;;;-148.95;28.90
38558;BME280;24333;42.626;23.308;2023-08-21T13:32:39;68040.06;;;-148.95;29.12
38558;BME280;24333;42.626;23.308;2023-08-21T13:35:05;68071.19;;;-148.95;28.91
38558;BME280;24333;42.626;23.308;2023-08-21T13:37:33;68062.88;;;-148.95;29.14
38558;BME280;24333;42.626;23.308;2023-08-21T13:39:59;68048.38;;;-148.95;28.55
38558;BME280;24333;42.626;23.308;2023-08-21T13:42:26;68064.97;;;-148.95;28.43
38558;BME280;24333;42.626;23.308;2023-08-21T13:44:56;68085.69;;;-148.95;29.24
38558;BME280;24333;42.626;23.308;2023-08-21T13:47:22;68108.50;;;-148.95;28.89
38558;BME280;24333;42.626;23.308;2023-08-21T13:49:47;68102.28;;;-148.95;29.17
38558;BME280;24333;42.626;23.308;2023-08-21T13:52:13;68114.72;;;-148.95;28.99
38558;BME280;24333;42.626;23.308;2023-08-21T16:52:30;68535.63;;;-148.95;40.68
38558;BME280;24333;42.626;23.308;2023-08-21T16:54:55;68546.00;;;-148.95;40.96
38558;BME280;24333;42.626;23.308;2023-08-21T16:57:22;68541.84;;;-148.95;41.35
38558;BME280;24333;42.626;23.308;2023-08-21T16:59:47;68548.09;;;-148.95;41.09
38558;BME280;24333;42.626;23.308;2023-08-21T17:02:12;68554.31;;;-148.95;40.82
38558;BME280;24333;42.626;23.308;2023-08-21T17:04:38;68560.53;;;-148.95;40.50
38558;BME280;24333;42.626;23.308;2023-08-21T17:07:03;68568.81;;;-148.95;41.62
38558;BME280;24333;42.626;23.308;2023-08-21T17:09:29;68579.19;;;-148.95;41.70
38558;BME280;24333;42.626;23.308;2023-08-21T17:11:54;68583.34;;;-148.95;42.75
38558;BME280;24333;42.626;23.308;2023-08-21T17:14:19;68599.91;;;-148.95;42.34
38558;BME280;24333;42.626;23.308;2023-08-21T17:16:45;68608.22;;;-148.95;42.70
38558;BME280;24333;42.626;23.308;2023-08-21T17:19:10;68618.59;;;-148.95;43.06
38558;BME280;24333;42.626;23.308;2023-08-21T17:21:35;68628.97;;;-148.95;43.30
38558;BME280;24333;42.626;23.308;2023-08-21T17:24:01;68635.19;;;-148.95;44.23
38558;BME280;24333;42.626;23.308;2023-08-21T17:26:26;68641.41;;;-148.95;44.42
38558;BME280;24333;42.626;23.308;2023-08-21T17:28:51;68658.00;;;-148.95;43.49
38558;BME280;24333;42.626;23.308;2023-08-21T17:31:17;68668.34;;;-148.95;43.23
38558;BME280;24333;42.626;23.308;2023-08-21T17:33:42;68666.28;;;-148.95;43.25
38558;BME280;24333;42.626;23.308;2023-08-21T17:36:08;68670.44;;;-148.95;43.54
38558;BME280;24333;42.626;23.308;2023-08-21T17:38:33;68676.66;;;-148.95;43.51
38558;BME280;24333;42.626;23.308;2023-08-21T17:40:59;68676.66;;;-148.95;43.54
38558;BME280;24333;42.626;23.308;2023-08-21T17:43:24;68682.88;;;-148.95;42.89
38558;BME280;24333;42.626;23.308;2023-08-21T17:45:49;68676.66;;;-148.95;43.83
38558;BME280;24333;42.626;23.308;2023-08-21T17:48:15;68682.88;;;-148.95;43.44
38558;BME280;24333;42.626;23.308;2023-08-21T17:50:40;68672.50;;;-148.95;44.17
38558;BME280;24333;42.626;23.308;2023-08-21T17:53:07;68678.72;;;-148.95;43.89
38558;BME280;24333;42.626;23.308;2023-08-21T17:55:34;68678.72;;;-148.95;43.76
38558;BME280;24333;42.626;23.308;2023-08-21T17:58:00;68680.78;;;-148.95;43.80
38558;BME280;24333;42.626;23.308;2023-08-21T18:00:25;68682.88;;;-148.95;44.31
38558;BME280;24333;42.626;23.308;2023-08-21T18:02:51;68693.25;;;-148.95;44.74
38558;BME280;24333;42.626;23.308;2023-08-21T18:05:16;68691.16;;;-148.95;45.31
38558;BME280;24333;42.626;23.308;2023-08-21T18:07:42;68701.53;;;-148.95;44.86
38558;BME280;24333;42.626;23.308;2023-08-21T18:10:09;68711.91;;;-148.95;44.36
38558;BME280;24333;42.626;23.308;2023-08-21T18:12:35;68718.13;;;-148.95;44.74
38558;BME280;24333;42.626;23.308;2023-08-21T18:15:02;68720.19;;;-148.95;44.99
38558;BME280;24333;42.626;23.308;2023-08-21T18:17:30;68726.41;;;-148.95;45.43
38558;BME280;24333;42.626;23.308;2023-08-21T18:19:55;68734.72;;;-148.95;45.50
38558;BME280;24333;42.626;23.308;2023-08-21T18:22:21;68740.94;;;-148.95;45.69
38558;BME280;24333;42.626;23.308;2023-08-21T18:24:46;68747.16;;;-148.95;46.32
38558;BME280;24333;42.626;23.308;2023-08-21T18:27:12;68753.38;;;-148.95;46.97
38558;BME280;24333;42.626;23.308;2023-08-21T18:29:38;68761.69;;;-148.95;47.55
38558;BME280;24333;42.626;23.308;2023-08-21T18:32:06;68769.97;;;-148.95;47.91
38558;BME280;24333;42.626;23.308;2023-08-21T18:34:33;68772.03;;;-148.95;47.98
38558;BME280;24333;42.626;23.308;2023-08-21T18:37:00;68782.41;;;-148.95;47.40
38558;BME280;24333;42.626;23.308;2023-08-21T18:39:26;68786.56;;;-148.95;47.20
38558;BME280;24333;42.626;23.308;2023-08-21T18:41:52;68788.63;;;-148.95;47.43
38558;BME280;24333;42.626;23.308;2023-08-21T18:44:17;68788.63;;;-148.95;47.63
38558;BME280;24333;42.626;23.308;2023-08-21T18:46:43;68796.94;;;-148.95;46.93
38558;BME280;24333;42.626;23.308;2023-08-21T18:49:08;68803.16;;;-148.95;46.72
38558;BME280;24333;42.626;23.308;2023-08-21T19:08:25;68834.25;;;-148.95;47.91
38558;BME280;24333;42.626;23.308;2023-08-21T19:10:50;68836.34;;;-148.95;48.55
38558;BME280;24333;42.626;23.308;2023-08-21T19:13:15;68850.84;;;-148.95;48.78
38558;BME280;24333;42.626;23.308;2023-08-21T19:15:41;68844.63;;;-148.95;48.06
38558;BME280;24333;42.626;23.308;2023-08-21T19:18:06;68844.63;;;-148.95;47.75
38558;BME280;24333;42.626;23.308;2023-08-21T19:20:32;68848.78;;;-148.95;47.73
38558;BME280;24333;42.626;23.308;2023-08-21T19:22:57;68848.78;;;-148.95;48.13
38558;BME280;24333;42.626;23.308;2023-08-21T19:25:23;68850.84;;;-148.95;48.72
38558;BME280;24333;42.626;23.308;2023-08-21T19:27:48;68848.78;;;-148.95;48.16
38558;BME280;24333;42.626;23.308;2023-08-21T19:30:14;68844.63;;;-148.95;48.17
38558;BME280;24333;42.626;23.308;2023-08-21T19:32:39;68848.78;;;-148.95;47.80
38558;BME280;24333;42.626;23.308;2023-08-21T19:35:06;68844.63;;;-148.95;47.51
38558;BME280;24333;42.626;23.308;2023-08-21T19:37:32;68844.63;;;-148.95;47.46
38558;BME280;24333;42.626;23.308;2023-08-21T19:39:57;68846.69;;;-148.95;47.26
38558;BME280;24333;42.626;23.308;2023-08-21T19:42:23;68848.78;;;-148.95;47.27
38558;BME280;24333;42.626;23.308;2023-08-21T19:44:50;68838.41;;;-148.95;47.03
38558;BME280;24333;42.626;23.308;2023-08-21T19:47:15;68846.69;;;-148.95;46.86
38558;BME280;24333;42.626;23.308;2023-08-21T19:49:41;68869.50;;;-148.95;48.41
38558;BME280;24333;42.626;23.308;2023-08-21T19:52:06;68888.19;;;-148.95;49.05
38558;BME280;24333;42.626;23.308;2023-08-21T19:54:32;68879.88;;;-148.95;50.21
38558;BME280;24333;42.626;23.308;2023-08-21T19:56:57;68869.50;;;-148.95;50.41
38558;BME280;24333;42.626;23.308;2023-08-21T19:59:23;68877.81;;;-148.95;51.23
38558;BME280;24333;42.626;23.308;2023-08-21T20:01:49;68890.25;;;-148.95;51.39
38558;BME280;24333;42.626;23.308;2023-08-21T20:04:15;68894.41;;;-148.95;52.63
38558;BME280;24333;42.626;23.308;2023-08-21T20:06:40;68902.69;;;-148.95;52.21
38558;BME280;24333;42.626;23.308;2023-08-21T20:09:06;68927.56;;;-148.95;53.54
38558;BME280;24333;42.626;23.308;2023-08-21T20:11:32;68931.72;;;-148.95;54.12
38558;BME280;24333;42.626;23.308;2023-08-21T20:13:57;68935.88;;;-148.95;54.75
38558;BME280;24333;42.626;23.308;2023-08-21T20:16:23;68933.81;;;-148.95;55.00
38558;BME280;24333;42.626;23.308;2023-08-21T20:18:48;68935.88;;;-148.95;55.51
38558;BME280;24333;42.626;23.308;2023-08-21T20:21:13;68946.25;;;-148.95;55.43
38558;BME280;24333;42.626;23.308;2023-08-21T20:23:42;68942.09;;;-148.95;55.19
38558;BME280;24333;42.626;23.308;2023-08-21T20:26:07;68948.31;;;-148.95;54.46
38558;BME280;24333;42.626;23.308;2023-08-21T20:28:33;68937.94;;;-148.95;53.88
38558;BME280;24333;42.626;23.308;2023-08-21T20:31:08;68931.72;;;-148.95;53.01
38558;BME280;24333;42.626;23.308;2023-08-21T20:33:33;68925.50;;;-148.95;52.71
38558;BME280;24333;42.626;23.308;2023-08-21T20:35:59;68919.28;;;-148.95;53.25
38558;BME280;24333;42.626;23.308;2023-08-21T20:38:27;68915.13;;;-148.95;53.02
38558;BME280;24333;42.626;23.308;2023-08-21T20:40:53;68919.28;;;-148.95;53.49
38558;BME280;24333;42.626;23.308;2023-08-21T20:43:22;68923.44;;;-148.95;54.67
38558;BME280;24333;42.626;23.308;2023-08-21T20:45:47;68929.66;;;-148.95;55.00
38558;BME280;24333;42.626;23.308;2023-08-21T20:48:13;68931.72;;;-148.95;55.51
38558;BME280;24333;42.626;23.308;2023-08-21T20:50:38;68933.81;;;-148.95;55.75
38558;BME280;24333;42.626;23.308;2023-08-21T20:53:04;68940.03;;;-148.95;55.94
38558;BME280;24333;42.626;23.308;2023-08-21T20:55:30;68942.09;;;-148.95;56.43
38558;BME280;24333;42.626;23.308;2023-08-21T20:57:55;68940.03;;;-148.95;56.98
38558;BME280;24333;42.626;23.308;2023-08-21T21:00:21;68942.09;;;-148.95;57.00
38558;BME280;24333;42.626;23.308;2023-08-21T21:02:46;68942.09;;;-148.95;56.98
38558;BME280;24333;42.626;23.308;2023-08-21T21:05:12;68944.16;;;-148.95;57.37
38558;BME280;24333;42.626;23.308;2023-08-21T21:13:25;68944.16;;;-148.95;55.97
38558;BME280;24333;42.626;23.308;2023-08-21T21:15:51;68940.03;;;-148.95;56.01
38558;BME280;24333;42.626;23.308;2023-08-21T21:18:16;68942.09;;;-148.95;55.67
38558;BME280;24333;42.626;23.308;2023-08-21T21:20:41;68940.03;;;-148.95;55.82
38558;BME280;24333;42.626;23.308;2023-08-21T21:23:07;68942.09;;;-148.95;55.88
38558;BME280;24333;42.626;23.308;2023-08-21T21:25:32;68940.03;;;-148.95;56.23
38558;BME280;24333;42.626;23.308;2023-08-21T21:27:58;68948.31;;;-148.95;56.44
38558;BME280;24333;42.626;23.308;2023-08-21T21:30:24;68946.25;;;-148.95;57.11
38558;BME280;24333;42.626;23.308;2023-08-21T21:32:49;68944.16;;;-148.95;57.11
38558;BME280;24333;42.626;23.308;2023-08-21T21:35:15;68942.09;;;-148.95;57.75
38558;BME280;24333;42.626;23.308;2023-08-21T21:37:40;68944.16;;;-148.95;57.96
38558;BME280;24333;42.626;23.308;2023-08-21T21:40:06;68948.31;;;-148.95;58.37
38558;BME280;24333;42.626;23.308;2023-08-21T21:42:32;68944.16;;;-148.95;58.31
38558;BME280;24333;42.626;23.308;2023-08-21T21:44:57;68948.31;;;-148.95;57.87
38558;BME280;24333;42.626;23.308;2023-08-21T21:47:23;68944.16;;;-148.95;57.54
38558;BME280;24333;42.626;23.308;2023-08-21T21:49:48;68942.09;;;-148.95;57.69
38558;BME280;24333;42.626;23.308;2023-08-21T21:52:13;68937.94;;;-148.95;57.74
38558;BME280;24333;42.626;23.308;2023-08-21T21:54:39;68940.03;;;-148.95;57.60
38558;BME280;24333;42.626;23.308;2023-08-21T21:57:04;68942.09;;;-148.95;57.80
38558;BME280;24333;42.626;23.308;2023-08-21T21:59:29;68946.25;;;-148.95;58.45
38558;BME280;24333;42.626;23.308;2023-08-21T22:01:55;68940.03;;;-148.95;58.76
38558;BME280;24333;42.626;23.308;2023-08-21T22:04:20;68942.09;;;-148.95;58.48
38558;BME280;24333;42.626;23.308;2023-08-21T22:06:45;68935.88;;;-148.95;57.88
38558;BME280;24333;42.626;23.308;2023-08-21T22:09:11;68935.88;;;-148.95;58.32
38558;BME280;24333;42.626;23.308;2023-08-21T22:11:37;68931.72;;;-148.95;58.05
38558;BME280;24333;42.626;23.308;2023-08-21T22:14:02;68931.72;;;-148.95;57.47
38558;BME280;24333;42.626;23.308;2023-08-21T22:16:28;68931.72;;;-148.95;56.48
38558;BME280;24333;42.626;23.308;2023-08-21T22:18:54;68923.44;;;-148.95;55.87
38558;BME280;24333;42.626;23.308;2023-08-21T22:21:19;68927.56;;;-148.95;56.13
38558;BME280;24333;42.626;23.308;2023-08-21T22:23:44;68921.34;;;-148.95;56.80
38558;BME280;24333;42.626;23.308;2023-08-21T22:26:10;68923.44;;;-148.95;56.40
38558;BME280;24333;42.626;23.308;2023-08-21T22:28:35;68931.72;;;-148.95;56.33
38558;BME280;24333;42.626;23.308;2023-08-21T22:31:00;68931.72;;;-148.95;55.63
38558;BME280;24333;42.626;23.308;2023-08-21T22:33:26;68933.81;;;-148.95;55.85
38558;BME280;24333;42.626;23.308;2023-08-21T22:35:51;68933.81;;;-148.95;55.56
38558;BME280;24333;42.626;23.308;2023-08-21T22:38:17;68927.56;;;-148.95;55.53
38558;BME280;24333;42.626;23.308;2023-08-21T22:40:42;68937.94;;;-148.95;55.82
38558;BME280;24333;42.626;23.308;2023-08-21T22:43:07;68940.03;;;-148.95;56.69
38558;BME280;24333;42.626;23.308;2023-08-21T22:45:33;68942.09;;;-148.95;57.71
38558;BME280;24333;42.626;23.308;2023-08-21T22:47:58;68944.16;;;-148.95;58.25
38558;BME280;24333;42.626;23.308;2023-08-21T22:50:23;68948.31;;;-148.95;58.71
38558;BME280;24333;42.626;23.308;2023-08-21T22:52:49;68962.84;;;-148.95;59.27
38558;BME280;24333;42.626;23.308;2023-08-21T22:55:14;68956.63;;;-148.95;59.60
38558;BME280;24333;42.626;23.308;2023-08-21T22:57:40;68952.47;;;-148.95;59.29
38558;BME280;24333;42.626;23.308;2023-08-21T23:00:06;68952.47;;;-148.95;59.42
38558;BME280;24333;42.626;23.308;2023-08-21T23:02:33;68952.47;;;-148.95;59.17
38558;BME280;24333;42.626;23.308;2023-08-21T23:04:58;68960.75;;;-148.95;60.33
38558;BME280;24333;42.626;23.308;2023-08-21T23:07:24;68952.47;;;-148.95;59.14
38558;BME280;24333;42.626;23.308;2023-08-21T23:09:49;68952.47;;;-148.95;58.85
38558;BME280;24333;42.626;23.308;2023-08-21T23:12:15;68948.31;;;-148.95;59.50
38558;BME280;24333;42.626;23.308;2023-08-21T23:14:40;68952.47;;;-148.95;59.28
38558;BME280;24333;42.626;23.308;2023-08-21T23:17:06;68946.25;;;-148.95;59.47
38558;BME280;24333;42.626;23.308;2023-08-21T23:19:32;68946.25;;;-148.95;59.16
38558;BME280;24333;42.626;23.308;2023-08-21T23:21:58;68950.38;;;-148.95;59.87
38558;BME280;24333;42.626;23.308;2023-08-21T23:24:23;68946.25;;;-148.95;59.37
38558;BME280;24333;42.626;23.308;2023-08-21T23:26:49;68948.31;;;-148.95;59.33
38558;BME280;24333;42.626;23.308;2023-08-21T23:29:14;68948.31;;;-148.95;59.38
38558;BME280;24333;42.626;23.308;2023-08-21T23:31:39;68956.63;;;-148.95;60.37
38558;BME280;24333;42.626;23.308;2023-08-21T23:34:05;68954.53;;;-148.95;60.39
38558;BME280;24333;42.626;23.308;2023-08-21T23:36:30;68964.91;;;-148.95;59.42
38558;BME280;24333;42.626;23.308;2023-08-21T23:38:56;68960.75;;;-148.95;59.87
38558;BME280;24333;42.626;23.308;2023-08-21T23:41:21;68969.06;;;-148.95;60.17
38558;BME280;24333;42.626;23.308;2023-08-21T23:43:47;68973.22;;;-148.95;60.58
38558;BME280;24333;42.626;23.308;2023-08-21T23:46:13;68989.78;;;-148.95;62.58
38558;BME280;24333;42.626;23.308;2023-08-21T23:48:39;68987.72;;;-148.95;63.03
38558;BME280;24333;42.626;23.308;2023-08-21T23:51:04;68991.88;;;-148.95;63.63